Time;durP1;ratioP1;P1;durP2;ratioP2;P2;SDS_P1;SDS_P2;PMS_P1;PMS_P2;Temp;Humidity;BMP_temperature;BMP_pressure;BME280_temperature;BME280_humidity;BME280_pressure;Samples;Min_cycle;Max_cycle;Signal;HPM_P1;HPM_P2
2023/05/07 00:01:48;;;;;;;5.80;1.90;;;;;;;11.06;35.81;100583.91;4892095;28;20078;-59
2023/05/07 00:04:20;;;;;;;9.05;1.77;;;;;;;10.86;36.45;100575.41;4881968;28;20042;-59
2023/05/07 00:06:51;;;;;;;2.03;1.58;;;;;;;10.76;34.88;100570.31;4877008;28;20052;-58
2023/05/07 00:09:21;;;;;;;4.00;1.77;;;;;;;10.62;36.17;100561.78;4884589;28;20045;-59
2023/05/07 00:11:52;;;;;;;5.03;1.80;;;;;;;10.24;35.86;100502.97;4889032;28;20044;-58
2023/05/07 00:14:22;;;;;;;3.28;1.90;;;;;;;10.86;36.92;100570.19;4882022;28;20049;-59
2023/05/07 00:16:53;;;;;;;4.75;2.15;;;;;;;11.21;37.82;100568.00;4882610;28;20060;-59
2023/05/07 00:19:25;;;;;;;5.47;1.85;;;;;;;10.99;35.57;100490.72;4882925;28;20123;-60
2023/05/07 00:21:56;;;;;;;3.00;1.83;;;;;;;11.41;35.87;100559.00;4884271;28;20443;-59
2023/05/07 00:24:27;;;;;;;8.00;1.92;;;;;;;11.78;35.47;100576.72;4883975;28;20111;-59
2023/05/07 00:26:57;;;;;;;17.33;3.13;;;;;;;11.79;33.09;100560.13;4882262;28;20062;-60
2023/05/07 00:29:28;;;;;;;4.65;2.13;;;;;;;11.72;34.26;100563.75;4889155;28;20066;-59
2023/05/07 00:31:58;;;;;;;4.25;1.60;;;;;;;11.72;33.54;100563.75;4885673;28;20062;-59
2023/05/07 00:34:30;;;;;;;9.32;2.72;;;;;;;11.68;33.86;100546.34;4880814;28;20049;-60
2023/05/07 00:37:01;;;;;;;3.80;1.90;;;;;;;11.68;33.75;100556.81;4862708;28;20057;-58
2023/05/07 00:39:35;;;;;;;5.18;1.83;;;;;;;11.62;33.23;100558.63;4882337;28;20052;-59
2023/05/07 00:42:05;;;;;;;4.28;1.30;;;;;;;11.71;33.80;100562.03;4872399;28;20151;-59
2023/05/07 00:44:36;;;;;;;6.53;1.92;;;;;;;11.76;33.72;100565.44;4883105;28;20056;-59
2023/05/07 00:47:07;;;;;;;1.88;1.30;;;;;;;11.87;33.38;100561.75;4883007;28;20053;-59
2023/05/07 00:49:41;;;;;;;4.10;1.83;;;;;;;11.64;32.40;100530.69;4880537;28;20065;-59
2023/05/07 00:52:14;;;;;;;5.50;2.33;;;;;;;11.84;32.71;100559.16;4883146;28;20075;-59
2023/05/07 00:54:46;;;;;;;16.75;2.80;;;;;;;12.05;33.61;100550.09;4882476;28;20052;-59
2023/05/07 00:57:17;;;;;;;17.35;2.40;;;;;;;12.04;32.63;100565.84;4890560;28;20052;-59
2023/05/07 00:59:47;;;;;;;5.75;1.88;;;;;;;11.86;31.94;100556.53;4881783;28;20515;-59
2023/05/07 01:02:19;;;;;;;4.03;1.75;;;;;;;11.88;31.74;100565.22;4900231;28;20074;-60
2023/05/07 01:04:51;;;;;;;10.30;1.80;;;;;;;11.92;31.85;100556.44;4886922;28;21534;-59
2023/05/07 01:07:22;;;;;;;14.27;1.95;;;;;;;12.07;32.44;100561.41;4883254;28;20049;-59
2023/05/07 01:09:53;;;;;;;4.68;1.60;;;;;;;12.31;32.24;100559.25;4882933;28;20049;-59
2023/05/07 01:12:23;;;;;;;10.70;2.13;;;;;;;12.23;30.93;100555.88;4882511;28;20706;-59
2023/05/07 01:14:54;;;;;;;8.73;1.95;;;;;;;12.39;31.87;100559.97;4882219;28;20052;-59
2023/05/07 01:17:25;;;;;;;7.70;1.73;;;;;;;12.56;31.82;100558.78;4882991;28;20059;-59
2023/05/07 01:19:57;;;;;;;5.72;1.73;;;;;;;12.62;30.26;100558.66;4886605;28;20045;-59
2023/05/07 01:22:34;;;;;;;2.92;1.60;;;;;;;12.50;31.41;100546.63;4879994;28;20065;-60
2023/05/07 01:25:05;;;;;;;3.30;1.40;;;;;;;12.63;30.51;100555.13;4881739;28;20088;-59
2023/05/07 01:27:36;;;;;;;3.85;1.45;;;;;;;12.65;30.25;100558.56;4883034;28;20052;-59
2023/05/07 01:30:08;;;;;;;5.95;1.58;;;;;;;12.54;31.23;100552.69;4874570;28;20530;-59
2023/05/07 01:32:44;;;;;;;4.57;1.70;;;;;;;12.29;30.17;100495.53;4871982;28;20058;-59
2023/05/07 01:35:19;;;;;;;2.20;1.52;;;;;;;12.47;30.70;100523.97;4888079;28;20114;-58
2023/05/07 01:37:52;;;;;;;2.95;1.63;;;;;;;12.73;31.81;100546.19;4873720;28;20061;-58
2023/05/07 01:40:23;;;;;;;5.07;1.67;;;;;;;12.81;30.60;100541.66;4883964;28;20048;-58
2023/05/07 01:42:55;;;;;;;3.35;1.52;;;;;;;12.94;30.09;100537.84;4867957;28;20443;-59
2023/05/07 01:45:26;;;;;;;2.97;1.83;;;;;;;12.85;30.19;100540.66;4882821;28;20053;-58
2023/05/07 01:47:58;;;;;;;5.97;1.67;;;;;;;13.01;30.18;100527.25;4882546;28;20076;-59
2023/05/07 01:50:30;;;;;;;11.45;1.92;;;;;;;13.32;31.33;100541.41;4880480;28;20057;-59
2023/05/07 01:53:03;;;;;;;12.30;2.35;;;;;;;13.43;31.04;100537.66;4882828;28;20059;-59
2023/05/07 01:55:34;;;;;;;2.75;1.55;;;;;;;13.46;30.51;100537.63;4887976;28;20049;-59
2023/05/07 01:58:05;;;;;;;2.97;1.42;;;;;;;13.34;30.21;100508.13;4888493;28;20056;-58
2023/05/07 02:00:35;;;;;;;3.15;1.40;;;;;;;13.62;29.30;100528.44;4883694;28;20052;-59
2023/05/07 02:03:06;;;;;;;3.28;1.80;;;;;;;13.50;30.26;100528.75;4886734;28;20053;-59
2023/05/07 02:05:39;;;;;;;5.40;1.75;;;;;;;13.46;29.69;100527.13;4886085;28;20049;-58
2023/05/07 02:08:12;;;;;;;4.47;1.88;;;;;;;13.34;29.25;100502.88;4875477;28;20060;-59
2023/05/07 02:10:42;;;;;;;2.53;1.65;;;;;;;13.59;30.23;100518.03;4885787;28;20045;-59
2023/05/07 02:13:13;;;;;;;3.88;1.60;;;;;;;13.58;29.32;100511.06;4886953;28;20049;-59
2023/05/07 02:15:46;;;;;;;3.63;1.58;;;;;;;13.69;30.28;100519.53;4882848;28;20406;-59
2023/05/07 02:18:18;;;;;;;3.88;1.52;;;;;;;13.76;29.61;100521.09;4866483;28;21348;-59
2023/05/07 02:20:49;;;;;;;8.45;1.80;;;;;;;13.85;30.83;100508.63;4868151;28;20437;-58
2023/05/07 02:23:21;;;;;;;3.50;1.60;;;;;;;13.52;29.90;100453.44;4865622;28;20049;-59
2023/05/07 02:25:52;;;;;;;4.80;1.70;;;;;;;13.92;29.65;100515.44;4858994;28;20056;-58
2023/05/07 02:28:23;;;;;;;5.70;1.83;;;;;;;14.06;30.19;100499.34;4877402;28;20057;-59
2023/05/07 02:30:54;;;;;;;4.53;2.00;;;;;;;14.54;29.31;100505.00;4879070;28;20720;-59
2023/05/07 02:33:24;;;;;;;3.90;1.70;;;;;;;14.45;28.92;100510.47;4861165;28;20058;-58
2023/05/07 02:35:55;;;;;;;2.70;1.52;;;;;;;14.26;28.81;100498.78;4877793;28;20057;-59
2023/05/07 02:38:27;;;;;;;6.30;1.75;;;;;;;14.28;29.79;100486.44;4876989;28;20050;-58
2023/05/07 02:40:57;;;;;;;8.25;1.77;;;;;;;14.28;29.14;100483.81;4868500;28;20547;-59
2023/05/07 02:43:28;;;;;;;4.80;1.50;;;;;;;14.16;28.84;100462.25;4889683;28;20546;-59
2023/05/07 02:46:05;;;;;;;5.82;1.65;;;;;;;14.04;27.91;100467.84;4879239;28;20067;-59
2023/05/07 02:48:36;;;;;;;4.20;1.85;;;;;;;13.92;28.53;100420.88;4876153;28;20048;-59
2023/05/07 02:51:07;;;;;;;3.90;1.42;;;;;;;14.35;29.68;100459.06;4883101;28;20064;-59
2023/05/07 02:53:39;;;;;;;5.63;1.70;;;;;;;14.47;29.29;100471.88;4878267;28;20053;-60
2023/05/07 02:56:10;;;;;;;8.05;1.75;;;;;;;14.69;29.27;100471.28;4885072;28;20488;-59
2023/05/07 02:58:41;;;;;;;11.23;3.70;;;;;;;14.58;28.94;100405.88;4883046;28;20103;-59
2023/05/07 03:01:13;;;;;;;11.07;4.80;;;;;;;15.29;31.25;100465.84;4885662;28;20041;-59
2023/05/07 03:03:44;;;;;;;3.22;1.45;;;;;;;15.49;28.47;100465.19;4885972;28;20044;-59
2023/05/07 03:06:15;;;;;;;8.77;1.83;;;;;;;15.17;28.40;100466.25;4887159;28;20693;-59
2023/05/07 03:08:47;;;;;;;2.83;1.40;;;;;;;14.98;27.88;100458.09;4886220;28;20558;-59
2023/05/07 03:11:18;;;;;;;6.82;1.50;;;;;;;15.04;27.67;100460.53;4874805;28;20070;-59
2023/05/07 03:13:49;;;;;;;4.10;1.75;;;;;;;15.19;28.75;100460.94;4888574;28;20088;-59
2023/05/07 03:16:20;;;;;;;9.43;2.00;;;;;;;15.36;28.51;100450.72;4886912;28;20538;-59
2023/05/07 03:18:50;;;;;;;2.70;1.40;;;;;;;15.14;27.19;100441.81;4887817;28;20529;-59
2023/05/07 03:21:21;;;;;;;3.30;1.40;;;;;;;15.04;27.77;100442.09;4886707;28;20049;-59
2023/05/07 03:23:53;;;;;;;5.13;1.50;;;;;;;15.20;28.54;100445.13;4887882;28;20060;-59
2023/05/07 03:26:24;;;;;;;2.60;1.30;;;;;;;15.35;27.73;100445.50;4873146;28;20280;-59
2023/05/07 03:28:55;;;;;;;4.60;1.43;;;;;;;15.51;29.39;100412.50;4887596;28;20119;-59
2023/05/07 03:31:25;;;;;;;22.27;2.70;;;;;;;15.96;30.63;100425.84;4886703;28;20275;-59
2023/05/07 03:33:58;;;;;;;7.73;2.00;;;;;;;16.28;30.40;100407.13;4886376;28;20296;-59
2023/05/07 03:36:28;;;;;;;5.43;1.50;;;;;;;16.60;28.77;100419.09;4881191;28;20281;-59
2023/05/07 03:39:01;;;;;;;7.80;1.70;;;;;;;16.09;26.52;100407.81;4887055;28;20833;-60
2023/05/07 03:41:31;;;;;;;4.50;1.40;;;;;;;15.77;27.24;100411.59;4885545;28;21039;-58
2023/05/07 03:44:02;;;;;;;17.53;2.53;;;;;;;15.16;28.57;100403.16;4880213;28;20445;-59
2023/05/07 03:46:32;;;;;;;2.63;1.70;;;;;;;14.91;27.34;100425.00;4870729;28;20307;-59
2023/05/07 03:49:03;;;;;;;5.33;1.60;;;;;;;14.97;27.35;100419.53;4885978;28;20283;-59
2023/05/07 03:51:34;;;;;;;7.37;2.10;;;;;;;15.18;28.96;100398.69;4884810;28;20283;-60
2023/05/07 03:54:06;;;;;;;4.47;1.50;;;;;;;15.54;28.84;100405.31;4875769;28;20776;-59
2023/05/07 03:56:36;;;;;;;10.50;1.67;;;;;;;15.57;27.59;100371.91;4875847;28;20299;-59
2023/05/07 03:59:07;;;;;;;3.80;1.70;;;;;;;15.73;27.24;100410.00;4874609;28;20279;-58
2023/05/07 04:01:37;;;;;;;13.73;2.60;;;;;;;15.82;27.22;100407.03;4879616;28;21025;-59
2023/05/07 04:04:08;;;;;;;7.33;2.03;;;;;;;16.25;28.96;100407.22;4882509;28;20284;-59
2023/05/07 04:06:41;;;;;;;21.80;2.93;;;;;;;16.76;30.27;100409.63;4876073;28;20279;-59
2023/05/07 04:09:14;;;;;;;8.47;2.00;;;;;;;17.29;29.66;100402.28;4876390;28;20302;-59
2023/05/07 04:11:44;;;;;;;24.47;2.20;;;;;;;17.71;28.88;100410.16;4875669;28;20291;-58
2023/05/07 04:14:15;;;;;;;10.63;2.67;;;;;;;17.50;29.06;100400.50;4875410;28;20334;-59
2023/05/07 04:16:45;;;;;;;19.77;3.23;;;;;;;17.59;30.53;100422.09;4875532;28;20283;-59
2023/05/07 04:19:16;;;;;;;13.83;3.77;;;;;;;17.45;31.49;100422.69;4876272;28;20342;-59
2023/05/07 04:21:46;;;;;;;10.70;3.20;;;;;;;17.42;31.97;100408.75;4876439;28;20786;-59
2023/05/07 04:24:19;;;;;;;20.60;3.73;;;;;;;17.33;31.79;100414.44;4874385;28;21155;-59
2023/05/07 04:26:50;;;;;;;32.20;4.47;;;;;;;17.01;32.32;100419.25;4866496;28;20291;-59
2023/05/07 04:29:21;;;;;;;19.27;3.43;;;;;;;16.61;32.06;100415.53;4876604;28;20279;-59
2023/05/07 04:31:52;;;;;;;9.37;3.03;;;;;;;16.17;31.89;100425.97;4875432;28;20298;-59
2023/05/07 04:34:22;;;;;;;18.90;3.00;;;;;;;15.69;31.23;100424.16;4873730;28;20280;-59
2023/05/07 04:36:53;;;;;;;14.83;4.47;;;;;;;15.17;34.30;100383.81;4876923;28;20871;-59
2023/05/07 04:39:25;;;;;;;40.73;13.80;;;;;;;15.18;35.38;100428.50;4876086;28;20606;-60
2023/05/07 04:41:55;;;;;;;25.47;8.83;;;;;;;15.01;34.99;100426.41;4874942;28;20288;-59
2023/05/07 04:44:26;;;;;;;20.83;5.47;;;;;;;14.49;35.59;100380.66;4878772;28;20625;-59
2023/05/07 04:46:56;;;;;;;22.50;7.30;;;;;;;14.60;36.53;100436.47;4874424;28;20850;-59
2023/05/07 04:49:27;;;;;;;30.40;8.87;;;;;;;14.48;37.33;100442.06;4875863;28;20738;-58
2023/05/07 04:51:57;;;;;;;30.03;7.37;;;;;;;14.29;37.70;100446.13;4875686;28;20291;-59
2023/05/07 04:54:30;;;;;;;26.83;7.23;;;;;;;13.85;37.75;100424.56;4886564;28;20825;-59
2023/05/07 04:57:00;;;;;;;48.50;8.73;;;;;;;14.09;37.92;100444.91;4884514;28;20291;-59
2023/05/07 04:59:31;;;;;;;31.58;7.88;;;;;;;14.33;38.57;100439.88;4878751;28;20305;-59
2023/05/07 05:02:01;;;;;;;47.30;10.90;;;;;;;14.53;38.83;100440.19;4868939;28;20049;-59
2023/05/07 05:04:32;;;;;;;17.10;7.70;;;;;;;14.49;37.85;100435.88;4890846;28;20750;-59
2023/05/07 05:07:03;;;;;;;28.95;11.32;;;;;;;14.34;37.50;100447.72;4875018;28;20283;-59
2023/05/07 05:09:36;;;;;;;31.53;8.37;;;;;;;13.96;37.14;100406.75;4877650;28;20613;-58
2023/05/07 05:12:07;;;;;;;22.50;6.03;;;;;;;13.85;37.76;100404.41;4883159;28;20750;-58
2023/05/07 05:14:38;;;;;;;16.25;4.20;;;;;;;14.42;36.53;100443.06;4870818;28;20198;-59
2023/05/07 05:17:09;;;;;;;30.83;4.43;;;;;;;14.79;36.04;100425.38;4884524;28;20060;-60
2023/05/07 05:19:40;;;;;;;13.30;3.90;;;;;;;15.09;35.23;100440.19;4881876;28;20053;-59
2023/05/07 05:22:10;;;;;;;82.10;9.60;;;;;;;15.10;35.57;100394.53;4879349;28;20279;-59
2023/05/07 05:24:42;;;;;;;16.45;4.97;;;;;;;15.57;35.04;100445.66;4874731;28;20492;-58
2023/05/07 05:27:13;;;;;;;21.33;4.47;;;;;;;15.73;34.21;100446.88;4870325;28;20049;-58
2023/05/07 05:29:43;;;;;;;27.40;5.47;;;;;;;15.61;33.67;100428.84;4867614;28;20279;-59
2023/05/07 05:32:14;;;;;;;17.30;4.03;;;;;;;15.63;33.94;100440.19;4882486;28;20294;-58
2023/05/07 05:34:45;;;;;;;18.40;4.53;;;;;;;15.59;33.57;100438.56;4883542;28;20372;-58
2023/05/07 05:37:16;;;;;;;12.57;3.90;;;;;;;15.42;33.05;100447.88;4876145;28;20276;-59
2023/05/07 05:39:50;;;;;;;15.57;3.53;;;;;;;15.22;33.38;100442.41;4873400;28;20289;-59
2023/05/07 05:42:24;;;;;;;20.50;4.57;;;;;;;15.21;33.03;100435.44;4887486;28;20279;-58
2023/05/07 05:44:55;;;;;;;29.87;11.83;;;;;;;15.08;33.46;100438.47;4885537;28;20379;-59
2023/05/07 05:47:25;;;;;;;36.97;4.73;;;;;;;14.92;33.55;100452.16;4887449;28;20296;-59
2023/05/07 05:49:56;;;;;;;35.93;4.73;;;;;;;14.89;33.73;100445.22;4887753;28;20358;-58
2023/05/07 05:52:26;;;;;;;28.17;5.33;;;;;;;15.01;33.95;100446.63;4887475;28;20291;-58
2023/05/07 05:54:59;;;;;;;11.07;3.70;;;;;;;14.95;33.18;100442.41;4885024;28;20805;-59
2023/05/07 05:57:29;;;;;;;15.40;3.80;;;;;;;15.03;33.82;100445.66;4876698;28;20293;-58
2023/05/07 06:00:00;;;;;;;11.68;3.67;;;;;;;15.13;33.58;100451.50;4885090;28;20318;-58
2023/05/07 06:02:30;;;;;;;15.70;7.27;;;;;;;14.99;34.15;100401.91;4882953;28;20060;-57
2023/05/07 06:05:01;;;;;;;17.55;3.47;;;;;;;15.38;33.12;100451.53;4887174;28;20263;-58
2023/05/07 06:07:31;;;;;;;16.00;3.72;;;;;;;15.18;32.00;100453.97;4886745;28;20882;-58
2023/05/07 06:10:04;;;;;;;21.67;4.30;;;;;;;15.04;32.34;100455.25;4888151;28;20048;-58
2023/05/07 06:12:34;;;;;;;13.93;3.97;;;;;;;14.91;33.31;100440.78;4886234;28;20298;-60
2023/05/07 06:15:05;;;;;;;24.00;3.70;;;;;;;14.95;32.79;100452.94;4882855;28;20284;-58
2023/05/07 06:17:36;;;;;;;11.47;2.90;;;;;;;14.98;33.01;100450.19;4887879;28;20295;-58
2023/05/07 06:20:08;;;;;;;12.75;3.45;;;;;;;14.85;33.07;100467.25;4887271;28;20456;-58
2023/05/07 06:22:39;;;;;;;8.07;2.83;;;;;;;14.71;32.48;100453.69;4869568;28;21485;-58
2023/05/07 06:25:12;;;;;;;21.67;3.43;;;;;;;14.65;32.56;100466.13;4881316;28;20151;-58
2023/05/07 06:27:42;;;;;;;12.57;3.30;;;;;;;14.56;32.86;100453.22;4883175;28;20283;-58
2023/05/07 06:30:14;;;;;;;9.13;2.22;;;;;;;14.57;33.09;100470.72;4895733;28;20045;-57
2023/05/07 06:32:44;;;;;;;20.08;2.95;;;;;;;14.74;33.61;100464.09;4871598;28;20053;-57
2023/05/07 06:35:15;;;;;;;21.88;6.20;;;;;;;14.80;32.87;100467.44;4870299;28;20057;-58
2023/05/07 06:37:47;;;;;;;14.85;3.25;;;;;;;14.74;32.73;100461.47;4888001;28;20072;-58
2023/05/07 06:40:19;;;;;;;7.07;2.38;;;;;;;14.71;32.29;100464.22;4882316;28;20051;-58
2023/05/07 06:42:50;;;;;;;9.43;3.03;;;;;;;14.63;32.86;100467.94;4886503;28;20049;-58
2023/05/07 06:45:21;;;;;;;15.23;2.85;;;;;;;14.70;32.48;100462.47;4886868;28;20059;-58
2023/05/07 06:47:52;;;;;;;32.85;3.80;;;;;;;14.84;32.67;100470.81;4887608;28;20048;-58
2023/05/07 06:50:22;;;;;;;9.32;2.92;;;;;;;14.78;32.28;100476.28;4886561;28;20049;-58
2023/05/07 06:52:53;;;;;;;12.05;2.70;;;;;;;14.53;31.89;100482.25;4880479;28;20127;-58
2023/05/07 06:55:25;;;;;;;33.25;4.55;;;;;;;14.41;32.61;100482.56;4881072;28;20528;-57
2023/05/07 06:57:57;;;;;;;16.65;3.95;;;;;;;14.28;32.48;100489.06;4878527;28;20049;-57
2023/05/07 07:00:28;;;;;;;10.50;2.75;;;;;;;14.18;32.62;100491.97;4877767;28;20043;-58
2023/05/07 07:02:59;;;;;;;28.35;4.57;;;;;;;14.14;32.56;100490.31;4880980;28;20060;-58
2023/05/07 07:05:32;;;;;;;13.27;2.92;;;;;;;14.12;32.63;100491.25;4875254;28;20553;-58
2023/05/07 07:08:03;;;;;;;27.80;3.67;;;;;;;14.08;32.25;100501.00;4876837;28;20050;-58
2023/05/07 07:10:35;;;;;;;8.13;2.45;;;;;;;14.03;32.89;100492.41;4886586;28;20106;-58
2023/05/07 07:13:05;;;;;;;16.30;3.53;;;;;;;14.14;33.34;100500.84;4868140;28;20064;-57
2023/05/07 07:15:36;;;;;;;15.20;4.05;;;;;;;14.15;32.90;100507.84;4877079;28;20128;-57
2023/05/07 07:18:07;;;;;;;10.75;3.03;;;;;;;14.09;32.33;100513.22;4876240;28;20045;-59
2023/05/07 07:20:37;;;;;;;12.80;3.08;;;;;;;13.93;33.02;100480.41;4875108;28;20065;-60
2023/05/07 07:23:08;;;;;;;9.55;4.18;;;;;;;14.01;32.63;100505.56;4883105;28;20051;-59
2023/05/07 07:25:40;;;;;;;8.57;2.83;;;;;;;13.88;32.92;100508.53;4882938;28;20058;-59
2023/05/07 07:28:12;;;;;;;10.00;2.78;;;;;;;13.83;33.09;100511.31;4877002;28;20050;-59
2023/05/07 07:30:42;;;;;;;6.95;4.43;;;;;;;13.81;32.99;100506.09;4875489;28;20475;-59
2023/05/07 07:33:13;;;;;;;19.75;6.25;;;;;;;13.78;32.78;100524.56;4878097;28;20064;-58
2023/05/07 07:35:44;;;;;;;9.57;3.65;;;;;;;13.61;33.15;100521.50;4875466;28;20068;-58
2023/05/07 07:38:14;;;;;;;39.17;4.55;;;;;;;13.65;33.49;100523.13;4874435;28;20048;-58
2023/05/07 07:40:46;;;;;;;9.18;4.22;;;;;;;13.61;33.11;100524.13;4880869;28;20467;-58
2023/05/07 07:43:17;;;;;;;7.97;3.70;;;;;;;13.57;33.47;100530.31;4876698;28;20089;-59
2023/05/07 07:45:48;;;;;;;20.10;3.35;;;;;;;13.60;33.43;100535.50;4883024;28;20058;-59
2023/05/07 07:48:18;;;;;;;32.60;4.50;;;;;;;13.51;33.52;100515.59;4879111;28;20054;-59
2023/05/07 07:50:51;;;;;;;17.90;5.95;;;;;;;13.17;32.90;100463.00;4880851;28;20053;-59
2023/05/07 07:53:22;;;;;;;19.95;4.80;;;;;;;12.99;33.13;100453.81;4877136;28;20132;-58
2023/05/07 07:55:54;;;;;;;9.60;3.72;;;;;;;13.43;33.73;100521.91;4875204;28;20063;-59
2023/05/07 07:58:28;;;;;;;9.60;4.32;;;;;;;13.40;33.24;100528.09;4870122;28;20061;-59
2023/05/07 08:00:58;;;;;;;13.82;5.25;;;;;;;13.19;33.48;100492.72;4878936;28;20441;-59
2023/05/07 08:03:31;;;;;;;42.35;15.98;;;;;;;13.40;33.70;100532.50;4883184;28;20058;-59
2023/05/07 08:06:02;;;;;;;19.33;6.18;;;;;;;13.33;34.08;100527.41;4877941;28;20114;-59
2023/05/07 08:08:32;;;;;;;10.13;5.28;;;;;;;13.21;33.67;100496.16;4876009;28;20053;-59
2023/05/07 08:11:04;;;;;;;11.35;4.05;;;;;;;13.33;34.23;100522.16;4877322;28;20107;-58
2023/05/07 08:13:35;;;;;;;17.17;8.13;;;;;;;13.26;33.80;100522.31;4876604;28;20180;-58
2023/05/07 08:16:06;;;;;;;47.25;20.27;;;;;;;13.14;33.44;100528.69;4874556;28;20474;-59
2023/05/07 08:18:37;;;;;;;36.40;17.77;;;;;;;13.01;33.97;100515.00;4875645;28;20055;-59
2023/05/07 08:21:07;;;;;;;26.80;9.20;;;;;;;13.01;34.10;100524.63;4876932;28;20056;-58
2023/05/07 08:23:37;;;;;;;15.45;6.68;;;;;;;13.06;34.36;100534.09;4878022;28;20058;-59
2023/05/07 08:26:10;;;;;;;15.70;6.32;;;;;;;12.97;34.50;100533.44;4881475;28;20434;-59
2023/05/07 08:28:40;;;;;;;17.30;6.18;;;;;;;12.87;34.91;100523.16;4874899;28;20053;-59
2023/05/07 08:31:11;;;;;;;17.77;4.80;;;;;;;12.90;35.05;100543.19;4877394;28;20118;-59
2023/05/07 08:33:42;;;;;;;11.13;4.20;;;;;;;12.93;35.15;100527.41;4875372;28;20080;-59
2023/05/07 08:36:12;;;;;;;7.30;3.47;;;;;;;12.85;35.01;100524.94;4875008;28;20057;-59
2023/05/07 08:38:45;;;;;;;10.30;3.92;;;;;;;12.84;35.04;100549.44;4876855;28;20073;-59
2023/05/07 08:41:17;;;;;;;25.42;5.35;;;;;;;12.74;35.41;100537.44;4880714;28;20515;-58
2023/05/07 08:43:50;;;;;;;8.77;5.15;;;;;;;12.34;35.45;100474.47;4871838;28;20094;-59
2023/05/07 08:46:21;;;;;;;10.02;4.30;;;;;;;12.63;35.20;100552.50;4875308;28;20505;-59
2023/05/07 08:48:53;;;;;;;11.15;4.28;;;;;;;12.55;35.73;100557.91;4876910;28;20095;-59
2023/05/07 08:51:24;;;;;;;11.43;3.95;;;;;;;12.25;35.58;100522.66;4876296;28;20045;-59
2023/05/07 08:53:54;;;;;;;8.23;3.90;;;;;;;12.38;36.29;100555.63;4875092;28;20049;-59
2023/05/07 08:56:26;;;;;;;12.13;4.25;;;;;;;12.36;36.57;100562.66;4875233;28;20040;-58
2023/05/07 08:58:58;;;;;;;24.65;6.25;;;;;;;12.34;36.86;100569.66;4879707;28;20482;-59
2023/05/07 09:01:31;;;;;;;14.50;4.70;;;;;;;12.28;36.55;100575.00;4868765;28;20055;-59
2023/05/07 09:04:04;;;;;;;9.35;5.45;;;;;;;12.18;37.13;100584.81;4875006;28;20395;-59
2023/05/07 09:06:35;;;;;;;14.80;4.28;;;;;;;12.02;37.05;100594.69;4874688;28;20056;-58
2023/05/07 09:09:05;;;;;;;13.73;4.63;;;;;;;11.88;37.55;100594.03;4877544;28;20045;-58
2023/05/07 09:11:43;;;;;;;20.02;4.32;;;;;;;11.69;37.81;100590.84;4880093;28;20076;-58
2023/05/07 09:14:14;;;;;;;10.45;4.82;;;;;;;11.60;38.19;100602.28;4868002;28;20049;-58
2023/05/07 09:16:53;;;;;;;16.20;3.45;;;;;;;11.55;38.06;100603.25;4868069;28;20124;-59
2023/05/07 09:19:28;;;;;;;18.30;3.78;;;;;;;11.34;38.57;100604.44;4880152;28;21182;-58
2023/05/07 09:22:04;;;;;;;9.48;3.50;;;;;;;11.13;38.94;100614.31;4878503;28;20912;-58
2023/05/07 09:24:39;;;;;;;12.80;3.83;;;;;;;10.98;39.16;100614.50;4868611;28;20589;-58
2023/05/07 09:27:13;;;;;;;9.27;4.63;;;;;;;10.78;39.83;100620.84;4870451;28;20058;-58
2023/05/07 09:29:48;;;;;;;13.95;4.38;;;;;;;10.55;40.18;100628.06;4878954;28;20079;-59
2023/05/07 09:32:20;;;;;;;47.17;6.30;;;;;;;10.29;40.96;100626.56;4871713;28;20050;-58
2023/05/07 09:34:53;;;;;;;30.77;5.30;;;;;;;10.13;41.64;100624.94;4877844;28;20192;-58
2023/05/07 09:37:24;;;;;;;24.17;4.97;;;;;;;10.01;41.78;100631.16;4879211;28;21384;-58
2023/05/07 09:39:54;;;;;;;17.63;4.55;;;;;;;9.85;42.00;100638.22;4879366;28;20110;-58
2023/05/07 09:42:34;;;;;;;19.23;4.70;;;;;;;9.23;42.45;100546.47;4878446;28;20733;-58
2023/05/07 09:45:12;;;;;;;55.70;7.93;;;;;;;9.64;43.03;100630.56;4868015;28;20069;-58
2023/05/07 09:47:46;;;;;;;25.75;6.45;;;;;;;9.45;43.27;100604.56;4879236;28;20399;-58
2023/05/07 09:50:21;;;;;;;20.45;7.40;;;;;;;9.60;43.52;100645.34;4871284;28;20116;-58
2023/05/07 09:52:51;;;;;;;19.63;7.85;;;;;;;9.42;44.53;100635.91;4877480;28;20056;-58
2023/05/07 09:55:24;;;;;;;35.22;9.98;;;;;;;9.28;45.11;100648.13;4879837;28;20079;-58
2023/05/07 09:57:57;;;;;;;19.38;8.15;;;;;;;9.13;45.98;100648.22;4878954;28;20061;-58
2023/05/07 10:00:29;;;;;;;26.52;11.60;;;;;;;8.86;47.18;100629.19;4877208;28;20058;-58
2023/05/07 10:03:00;;;;;;;21.48;9.85;;;;;;;8.87;47.86;100651.78;4877633;28;20084;-57
2023/05/07 10:05:31;;;;;;;23.58;9.55;;;;;;;8.48;48.87;100617.13;4878566;28;20053;-58
2023/05/07 10:08:19;;;;;;;16.77;7.25;;;;;;;8.66;49.93;100654.44;4879243;28;20052;-58
2023/05/07 10:10:51;;;;;;;16.20;6.10;;;;;;;8.47;50.57;100645.81;4866256;28;20058;-58
2023/05/07 10:13:37;;;;;;;15.45;7.07;;;;;;;8.45;51.81;100660.56;4878901;28;20053;-58
2023/05/07 10:16:22;;;;;;;17.38;8.85;;;;;;;8.36;52.30;100658.78;4863689;28;20055;-58
2023/05/07 10:18:53;;;;;;;18.20;8.52;;;;;;;8.10;53.27;100636.25;4866131;28;20057;-58
2023/05/07 10:21:26;;;;;;;19.65;7.97;;;;;;;8.01;54.41;100651.84;4869067;28;20056;-57
2023/05/07 10:24:01;;;;;;;19.65;7.50;;;;;;;7.99;55.55;100670.09;4872464;28;20034;-58
2023/05/07 10:26:41;;;;;;;23.08;7.10;;;;;;;7.99;55.72;100669.22;4877038;28;20127;-57
2023/05/07 10:29:23;;;;;;;17.50;6.20;;;;;;;8.01;56.15;100667.47;4867112;28;20044;-58
2023/05/07 10:32:01;;;;;;;11.77;6.43;;;;;;;7.89;56.40;100657.09;4871612;28;20049;-57
2023/05/07 10:34:41;;;;;;;15.60;6.65;;;;;;;8.00;56.81;100676.16;4868701;28;20123;-58
2023/05/07 10:37:13;;;;;;;14.88;6.40;;;;;;;7.66;57.08;100639.72;4868375;28;20106;-57
2023/05/07 10:39:43;;;;;;;11.25;6.35;;;;;;;7.72;57.72;100676.13;4876919;28;20099;-58
2023/05/07 10:42:16;;;;;;;13.93;6.18;;;;;;;7.73;58.19;100698.66;4877788;28;20132;-57
2023/05/07 10:44:48;;;;;;;13.57;6.50;;;;;;;7.62;59.01;100699.53;4878119;28;20075;-57
2023/05/07 10:47:19;;;;;;;12.18;6.03;;;;;;;7.51;59.83;100696.88;4870168;28;20129;-57
2023/05/07 10:50:23;;;;;;;19.63;6.38;;;;;;;7.45;60.65;100709.84;4879185;28;20057;-57
2023/05/07 10:53:28;;;;;;;17.55;7.45;;;;;;;7.15;61.02;100672.47;4975166;28;21063;-57
2023/05/07 10:56:31;;;;;;;19.45;6.88;;;;;;;7.29;62.08;100709.81;4984883;28;20046;-57
2023/05/07 10:59:49;;;;;;;22.17;7.20;;;;;;;7.21;62.25;100708.88;4926818;29;20597;-57
2023/05/07 11:02:21;;;;;;;16.23;7.35;;;;;;;7.17;62.41;100691.56;4841035;28;20173;-57
2023/05/07 11:05:22;;;;;;;15.70;7.15;;;;;;;7.22;62.83;100710.63;4875548;28;20049;-57
2023/05/07 11:07:57;;;;;;;17.95;5.78;;;;;;;6.73;62.83;100648.03;4866224;28;20073;-57
2023/05/07 11:10:50;;;;;;;12.80;6.05;;;;;;;7.09;63.56;100714.91;4876464;28;20599;-57
2023/05/07 11:13:49;;;;;;;13.52;6.35;;;;;;;7.01;63.14;100726.09;4867526;28;20065;-57
2023/05/07 11:16:23;;;;;;;15.40;6.60;;;;;;;6.78;62.91;100706.06;4857150;28;20042;-57
2023/05/07 11:18:58;;;;;;;18.33;6.22;;;;;;;6.95;63.22;100710.50;4877089;28;20084;-57
2023/05/07 11:21:38;;;;;;;18.83;6.32;;;;;;;6.95;63.50;100700.09;4877165;28;20051;-57
2023/05/07 11:24:09;;;;;;;16.83;6.38;;;;;;;6.91;63.93;100709.59;4872319;28;20100;-57
2023/05/07 11:26:50;;;;;;;22.50;8.38;;;;;;;6.68;64.40;100691.28;4877340;28;20072;-57
2023/05/07 11:29:22;;;;;;;57.78;22.92;;;;;;;6.35;62.19;100682.41;4866091;28;20049;-56
2023/05/07 11:31:53;;;;;;;39.65;16.88;;;;;;;6.21;60.38;100704.78;4876755;28;20061;-57
2023/05/07 11:34:28;;;;;;;34.60;13.50;;;;;;;5.81;59.82;100694.00;4885082;28;20050;-55
2023/05/07 11:37:02;;;;;;;20.50;13.90;;;;;;;5.59;60.01;100704.16;4864778;28;20058;-54
2023/05/07 11:39:35;;;;;;;39.90;22.10;;;;;;;5.19;61.00;100667.44;4881947;28;20049;-56
2023/05/07 11:42:06;;;;;;;21.95;12.95;;;;;;;5.17;61.03;100700.22;4873664;28;20046;-54
2023/05/07 11:44:48;;;;;;;27.00;13.73;;;;;;;4.88;62.28;100699.81;4863322;28;20053;-53
2023/05/07 11:47:21;;;;;;;54.03;46.08;;;;;;;4.81;62.85;100699.72;4860710;28;20126;-55